Aerbrava en el facebook Aerbrava en el twitter Aerbrava Google+ Aerbrava instagram Aerbrava en el youtube Aerbrava tumblr Aerbrava flikr Aerbrava pinterest
Aerbrava in English aerbrava en Español
Escola de Pilots
Telèfon 972234126 972 23 41 26
 
Aerbrava in English aerbrava en Español
Aerbrava - meteorologia

Informació meteorològica aeronàutica

 

En aquest apartat apareix la informació meteorològica aeronàutica que és utilitzada a les pràctiques dels alumnes de l’Escola de Pilots del nostre centre durant la seva formació, pel que pot no ser actual i s’hauria d’utilitzar pel seu propi compte i risc. AERBRAVA no es fa responsable del seu ús.

 

TEMPS ACTUAL

Satèl·lit Meteorològic

sat24.com

Servei Meteorològic de Catalunya

 

LEGE 242200Z 04005KT 020V080 9999 FEW032 SCT045 17/08 Q1024
LEGE 242130Z 04007KT 9999 FEW032 SCT045 18/09 Q1024
LEGE 242100Z 05007KT 010V080 9999 SCT032 18/09 Q1024
LEGE 242030Z 05007KT 020V080 9999 BKN032 19/09 Q1023
LEGE 242000Z 06005KT 350V100 9999 BKN032 19/10 Q1023
LEGE 241930Z 06006KT 020V090 9999 BKN032 19/10 Q1023
LEGE 241900Z 06007KT 9999 BKN032 19/11 Q1023
LEGE 241830Z 07009KT 030V120 9999 BKN032 19/12 Q1022
TAF LEGE 241700Z 2418/2518 03010KT 9999 BKN030 TX24/2513Z TN16/2506Z

Aviation Weather

 
Aerbrava en el facebook Aerbrava en el twitter Aerbrava Google+ Aerbrava instagram Aerbrava en el youtube Aerbrava tumblr Aerbrava flikr Aerbrava pinterest

¡CSS Vàlid!